Time;durP1;ratioP1;P1;durP2;ratioP2;P2;SDS_P1;SDS_P2;PMS_P1;PMS_P2;Temp;Humidity;BMP_temperature;BMP_pressure;BME280_temperature;BME280_humidity;BME280_pressure;Samples;Min_cycle;Max_cycle;Signal;HPM_P1;HPM_P2
2022/01/21 00:01:20;;;;;;;8.57;3.07;;;;;;;;;;4733561;30;20675;-88
2022/01/21 00:04:25;;;;;;;9.27;3.50;;;;;;;;;;4742078;30;20566;-88
2022/01/21 00:07:29;;;;;;;6.47;3.00;;;;;;;;;;4732044;30;20557;-89
2022/01/21 00:10:33;;;;;;;7.80;3.20;;;;;;;;;;4731676;30;21109;-88
2022/01/21 00:13:38;;;;;;;4.90;3.20;;;;;;;;;;4732028;30;20612;-88
2022/01/21 00:16:42;;;;;;;9.37;3.43;;;;;;;;;;4731921;30;20557;-88
2022/01/21 00:19:48;;;;;;;9.60;3.23;;;;;;;;;;4732183;30;20609;-88
2022/01/21 00:33:00;;;;;;;10.40;3.80;;;;;;;;;;4741630;30;20637;-88
2022/01/21 00:36:06;;;;;;;11.87;3.53;;;;;;;;;;4721832;30;20567;-88
2022/01/21 00:39:11;;;;;;;7.90;3.33;;;;;;;;;;4731531;30;20627;-88
2022/01/21 00:45:26;;;;;;;7.47;2.83;;;;;;;;;;4731864;30;20616;-88
2022/01/21 00:48:30;;;;;;;5.70;2.10;;;;;;;;;;4732604;30;20613;-88
2022/01/21 00:51:34;;;;;;;6.93;2.43;;;;;;;;;;4724669;30;20974;-88
2022/01/21 00:54:40;;;;;;;6.00;2.73;;;;;;;;;;4744707;30;20620;-88
2022/01/21 00:57:44;;;;;;;5.27;1.87;;;;;;;;;;4734819;30;20557;-86
2022/01/21 01:00:48;;;;;;;5.17;1.70;;;;;;;;;;4734505;30;20620;-89
2022/01/21 01:03:52;;;;;;;3.47;1.37;;;;;;;;;;4724757;30;20553;-88
2022/01/21 01:06:57;;;;;;;2.30;1.17;;;;;;;;;;4734669;30;20554;-88
2022/01/21 01:10:05;;;;;;;3.60;1.50;;;;;;;;;;4724628;30;20549;-88
2022/01/21 01:20:02;;;;;;;2.77;1.50;;;;;;;;;;4734560;30;20605;-88
2022/01/21 01:24:03;;;;;;;2.27;1.50;;;;;;;;;;4734138;30;20609;-88
2022/01/21 01:29:58;;;;;;;1.47;1.13;;;;;;;;;;4734289;30;20553;-88
2022/01/21 01:33:06;;;;;;;4.53;1.47;;;;;;;;;;4733955;30;20628;-88
2022/01/21 01:36:11;;;;;;;3.50;1.90;;;;;;;;;;4734044;30;20554;-88
2022/01/21 01:39:28;;;;;;;5.77;1.47;;;;;;;;;;4733829;30;21101;-88
2022/01/21 01:42:57;;;;;;;3.07;1.70;;;;;;;;;;4733868;30;20628;-89
2022/01/21 01:49:28;;;;;;;4.27;1.87;;;;;;;;;;4734124;30;20561;-88
2022/01/21 01:52:33;;;;;;;5.30;2.67;;;;;;;;;;4733651;30;20629;-88
2022/01/21 01:55:37;;;;;;;7.83;3.07;;;;;;;;;;4723844;30;20946;-88
2022/01/21 01:58:43;;;;;;;5.00;2.90;;;;;;;;;;4733787;30;20553;-88
2022/01/21 02:02:20;;;;;;;8.50;3.87;;;;;;;;;;4733132;30;20673;-88
2022/01/21 02:05:23;;;;;;;9.07;2.90;;;;;;;;;;4718553;30;20640;-88
2022/01/21 02:08:29;;;;;;;6.13;3.30;;;;;;;;;;4733688;30;20573;-88
2022/01/21 02:11:34;;;;;;;7.67;3.70;;;;;;;;;;4733308;30;20640;-88
2022/01/21 02:14:47;;;;;;;12.60;4.03;;;;;;;;;;4733430;30;20553;-88
2022/01/21 02:21:31;;;;;;;10.57;3.77;;;;;;;;;;4726035;30;20685;-88
2022/01/21 02:24:52;;;;;;;11.60;3.90;;;;;;;;;;4723619;30;20579;-88
2022/01/21 02:27:58;;;;;;;9.90;4.00;;;;;;;;;;4743062;30;20569;-88
2022/01/21 02:31:02;;;;;;;7.40;3.33;;;;;;;;;;4733130;30;20990;-88
2022/01/21 02:34:08;;;;;;;10.07;3.87;;;;;;;;;;4733326;30;20561;-88
2022/01/21 02:37:17;;;;;;;6.20;3.53;;;;;;;;;;4733031;30;20569;-88
2022/01/21 02:40:21;;;;;;;12.20;4.33;;;;;;;;;;4723258;30;20927;-88
2022/01/21 02:43:25;;;;;;;9.93;4.00;;;;;;;;;;4733105;30;20564;-88
2022/01/21 02:46:29;;;;;;;9.50;3.80;;;;;;;;;;4733030;30;20553;-88
2022/01/21 02:49:35;;;;;;;9.47;3.90;;;;;;;;;;4723006;30;20613;-88
2022/01/21 02:52:53;;;;;;;13.40;4.13;;;;;;;;;;4732855;30;20633;-88
2022/01/21 02:55:57;;;;;;;7.77;3.57;;;;;;;;;;4733098;30;20619;-88
2022/01/21 02:59:02;;;;;;;14.50;3.80;;;;;;;;;;4732456;30;20613;-88
2022/01/21 03:02:06;;;;;;;8.30;3.30;;;;;;;;;;4742251;30;20671;-88
2022/01/21 03:05:14;;;;;;;8.70;3.90;;;;;;;;;;4732669;30;20558;-88
2022/01/21 03:08:18;;;;;;;8.77;3.67;;;;;;;;;;4732189;30;20957;-88
2022/01/21 03:11:23;;;;;;;7.77;3.60;;;;;;;;;;4722186;30;20636;-88
2022/01/21 03:14:27;;;;;;;13.73;3.87;;;;;;;;;;4722512;30;20558;-88
2022/01/21 03:17:31;;;;;;;8.87;2.93;;;;;;;;;;4732098;30;20574;-87
2022/01/21 03:20:35;;;;;;;2.47;1.20;;;;;;;;;;4732473;30;20601;-88
2022/01/21 03:23:39;;;;;;;8.13;1.50;;;;;;;;;;4732444;30;20574;-88
2022/01/21 03:26:44;;;;;;;3.40;1.47;;;;;;;;;;4733539;30;20554;-88
2022/01/21 03:29:48;;;;;;;3.87;1.30;;;;;;;;;;4723714;30;20553;-88
2022/01/21 03:32:52;;;;;;;2.03;1.13;;;;;;;;;;4731900;30;20628;-88
2022/01/21 03:35:57;;;;;;;3.50;1.30;;;;;;;;;;4732435;30;20616;-88
2022/01/21 03:39:03;;;;;;;6.13;1.40;;;;;;;;;;4732238;30;20900;-88
2022/01/21 03:42:07;;;;;;;3.27;1.17;;;;;;;;;;4722186;30;20664;-88
2022/01/21 03:45:13;;;;;;;4.13;1.30;;;;;;;;;;4741874;30;20620;-88
2022/01/21 03:48:19;;;;;;;4.37;1.30;;;;;;;;;;4732076;30;20557;-88
2022/01/21 03:51:23;;;;;;;4.60;1.00;;;;;;;;;;4732049;30;20637;-88
2022/01/21 03:54:28;;;;;;;5.50;1.30;;;;;;;;;;4722069;30;20558;-88
2022/01/21 03:57:33;;;;;;;4.83;1.17;;;;;;;;;;4732138;30;20558;-88
2022/01/21 04:00:42;;;;;;;7.97;1.20;;;;;;;;;;4741943;30;20597;-87
2022/01/21 04:03:46;;;;;;;2.50;1.17;;;;;;;;;;4722336;30;20562;-88
2022/01/21 04:06:50;;;;;;;3.20;1.40;;;;;;;;;;4742065;30;20891;-88
2022/01/21 04:09:55;;;;;;;7.77;1.67;;;;;;;;;;4732195;30;20562;-86
2022/01/21 04:12:59;;;;;;;5.30;1.30;;;;;;;;;;4730299;30;20653;-88
2022/01/21 04:16:04;;;;;;;5.80;1.40;;;;;;;;;;4732000;30;21109;-88
2022/01/21 04:19:10;;;;;;;8.00;1.50;;;;;;;;;;4732097;30;20927;-88
2022/01/21 04:22:14;;;;;;;8.73;1.40;;;;;;;;;;4720735;30;21239;-86
2022/01/21 04:25:19;;;;;;;2.47;1.37;;;;;;;;;;4725802;30;20609;-87
2022/01/21 04:28:24;;;;;;;4.20;1.80;;;;;;;;;;4725968;30;20546;-87
2022/01/21 04:31:28;;;;;;;3.60;1.53;;;;;;;;;;4745870;30;20641;-87
2022/01/21 04:34:33;;;;;;;7.03;1.70;;;;;;;;;;4725228;30;20605;-87
2022/01/21 04:37:43;;;;;;;3.80;1.50;;;;;;;;;;4724923;30;21152;-88
2022/01/21 04:40:56;;;;;;;9.13;1.80;;;;;;;;;;4729496;30;20641;-87
2022/01/21 04:47:24;;;;;;;3.73;1.43;;;;;;;;;;4718732;30;20559;-87
2022/01/21 04:50:39;;;;;;;4.30;1.53;;;;;;;;;;4718744;30;20558;-88
2022/01/21 04:53:46;;;;;;;5.20;1.20;;;;;;;;;;4728009;30;20610;-87
2022/01/21 04:56:57;;;;;;;1.63;1.07;;;;;;;;;;4718000;30;20609;-87
2022/01/21 05:00:04;;;;;;;5.53;2.00;;;;;;;;;;4717710;30;20550;-87
2022/01/21 05:03:10;;;;;;;5.90;1.37;;;;;;;;;;4741261;25;20697;-84
2022/01/21 05:06:14;;;;;;;2.50;1.30;;;;;;;;;;4728920;30;20613;-85
2022/01/21 05:09:22;;;;;;;3.13;1.27;;;;;;;;;;4728887;30;20574;-85
2022/01/21 05:12:28;;;;;;;3.43;1.43;;;;;;;;;;4738307;30;20630;-85
2022/01/21 05:16:00;;;;;;;5.10;1.47;;;;;;;;;;4728577;30;20554;-86
2022/01/21 05:19:14;;;;;;;5.83;1.50;;;;;;;;;;4728476;30;20558;-85
2022/01/21 05:22:25;;;;;;;7.20;1.37;;;;;;;;;;4728191;30;21236;-85
2022/01/21 05:25:30;;;;;;;4.00;1.23;;;;;;;;;;4718774;30;20562;-85
2022/01/21 05:28:35;;;;;;;3.43;1.40;;;;;;;;;;4728666;30;20550;-85
2022/01/21 05:32:01;;;;;;;2.57;1.10;;;;;;;;;;4730418;30;20979;-85
2022/01/21 05:35:15;;;;;;;7.87;1.47;;;;;;;;;;4727333;30;20563;-85
2022/01/21 05:38:25;;;;;;;3.20;1.10;;;;;;;;;;4738340;30;20566;-85
2022/01/21 05:41:52;;;;;;;1.83;0.93;;;;;;;;;;4737967;30;21240;-85
2022/01/21 05:48:42;;;;;;;4.63;1.27;;;;;;;;;;4738110;30;20562;-84
2022/01/21 05:52:17;;;;;;;2.73;1.80;;;;;;;;;;4730598;30;20630;-85
2022/01/21 05:55:40;;;;;;;3.20;1.80;;;;;;;;;;4719787;30;20562;-85
2022/01/21 05:59:08;;;;;;;6.80;2.23;;;;;;;;;;4742784;30;20559;-84
2022/01/21 06:02:13;;;;;;;7.27;2.27;;;;;;;;;;4727414;30;21268;-84
2022/01/21 06:05:17;;;;;;;3.67;1.60;;;;;;;;;;4728228;30;20562;-84
2022/01/21 06:08:21;;;;;;;7.87;2.23;;;;;;;;;;4737437;30;20563;-84
2022/01/21 06:11:25;;;;;;;7.10;2.27;;;;;;;;;;4717698;30;20637;-84
2022/01/21 06:14:31;;;;;;;5.93;2.43;;;;;;;;;;4717400;30;20665;-85
2022/01/21 06:17:35;;;;;;;9.43;2.50;;;;;;;;;;4717215;30;20606;-85
2022/01/21 06:20:39;;;;;;;9.07;3.13;;;;;;;;;;4737719;30;20554;-85
2022/01/21 06:23:44;;;;;;;8.57;2.67;;;;;;;;;;4737059;30;20563;-84
2022/01/21 06:26:48;;;;;;;10.17;2.50;;;;;;;;;;4747730;30;21087;-84
2022/01/21 06:29:53;;;;;;;5.20;2.13;;;;;;;;;;4737361;30;20571;-86
2022/01/21 06:32:57;;;;;;;6.40;3.20;;;;;;;;;;4747138;30;20630;-84
2022/01/21 06:36:01;;;;;;;8.80;4.00;;;;;;;;;;4727077;30;20892;-85
2022/01/21 06:39:05;;;;;;;8.80;2.80;;;;;;;;;;4727139;30;20559;-84
2022/01/21 06:42:09;;;;;;;5.60;2.50;;;;;;;;;;4737203;30;21245;-85
2022/01/21 06:45:13;;;;;;;16.37;6.87;;;;;;;;;;4717141;30;20609;-85
2022/01/21 06:48:17;;;;;;;31.37;15.33;;;;;;;;;;4716840;30;20559;-84
2022/01/21 06:51:22;;;;;;;27.83;11.73;;;;;;;;;;4737921;30;20641;-85
2022/01/21 06:54:26;;;;;;;24.97;9.70;;;;;;;;;;4727009;30;20573;-84
2022/01/21 06:57:30;;;;;;;14.07;6.77;;;;;;;;;;4726437;30;20873;-85
2022/01/21 07:00:34;;;;;;;8.37;2.93;;;;;;;;;;4727198;30;20574;-84
2022/01/21 07:03:39;;;;;;;14.67;7.03;;;;;;;;;;4736934;30;20547;-85
2022/01/21 07:06:43;;;;;;;28.93;15.87;;;;;;;;;;4736766;30;20567;-84
2022/01/21 07:09:48;;;;;;;26.83;16.00;;;;;;;;;;4727869;30;20571;-85
2022/01/21 07:12:52;;;;;;;28.00;13.63;;;;;;;;;;4739210;30;21231;-85
2022/01/21 07:15:58;;;;;;;29.47;14.67;;;;;;;;;;4728346;30;20571;-86
2022/01/21 07:19:02;;;;;;;26.93;13.73;;;;;;;;;;4727771;30;20561;-85
2022/01/21 07:22:06;;;;;;;24.47;12.77;;;;;;;;;;4727798;30;20680;-86
2022/01/21 07:25:12;;;;;;;18.00;10.43;;;;;;;;;;4727605;30;20569;-86
2022/01/21 07:28:17;;;;;;;16.23;7.57;;;;;;;;;;4737396;30;21098;-84
2022/01/21 07:31:21;;;;;;;11.93;6.33;;;;;;;;;;4727562;30;20632;-86
2022/01/21 07:34:26;;;;;;;11.20;6.93;;;;;;;;;;4717587;30;20561;-85
2022/01/21 07:37:30;;;;;;;14.60;6.53;;;;;;;;;;4737593;30;20557;-86
2022/01/21 07:40:34;;;;;;;13.17;6.50;;;;;;;;;;4717131;30;20571;-84
2022/01/21 07:43:38;;;;;;;21.00;7.53;;;;;;;;;;4737137;30;20606;-85
2022/01/21 07:46:44;;;;;;;7.83;4.40;;;;;;;;;;4727161;30;20574;-85
2022/01/21 07:49:48;;;;;;;15.07;9.60;;;;;;;;;;4726821;30;20550;-86
2022/01/21 07:52:52;;;;;;;12.40;8.80;;;;;;;;;;4726525;30;20714;-84
2022/01/21 07:55:56;;;;;;;9.70;5.63;;;;;;;;;;4726160;30;20561;-84
2022/01/21 07:59:07;;;;;;;8.27;4.43;;;;;;;;;;4728484;30;20565;-85
2022/01/21 08:02:11;;;;;;;9.80;3.60;;;;;;;;;;4749437;30;20685;-85
2022/01/21 08:05:15;;;;;;;8.40;3.23;;;;;;;;;;4739628;30;20558;-85
2022/01/21 08:08:19;;;;;;;14.87;5.17;;;;;;;;;;4729558;30;21114;-84
2022/01/21 08:11:24;;;;;;;6.07;3.93;;;;;;;;;;4719442;30;20638;-84
2022/01/21 08:14:28;;;;;;;10.83;5.80;;;;;;;;;;4729453;30;20550;-84
2022/01/21 08:17:32;;;;;;;12.07;9.93;;;;;;;;;;4729229;30;20577;-84
2022/01/21 08:20:36;;;;;;;9.57;4.43;;;;;;;;;;4739668;30;21136;-85
2022/01/21 08:23:40;;;;;;;11.50;4.00;;;;;;;;;;4719466;30;20614;-85
2022/01/21 08:26:45;;;;;;;12.03;4.77;;;;;;;;;;4739770;30;20573;-85
2022/01/21 08:29:50;;;;;;;8.00;3.60;;;;;;;;;;4719661;30;20916;-84
2022/01/21 08:32:54;;;;;;;6.20;3.77;;;;;;;;;;4729460;30;20629;-84
2022/01/21 08:35:58;;;;;;;12.37;4.10;;;;;;;;;;4729196;30;20593;-86
2022/01/21 08:39:02;;;;;;;14.07;4.80;;;;;;;;;;4718565;30;20578;-84
2022/01/21 08:42:06;;;;;;;11.93;2.77;;;;;;;;;;4728612;30;21040;-86
2022/01/21 08:45:11;;;;;;;8.73;3.67;;;;;;;;;;4739026;30;20561;-84
2022/01/21 08:48:15;;;;;;;12.27;4.73;;;;;;;;;;4729204;30;20904;-85
2022/01/21 08:51:25;;;;;;;7.60;2.87;;;;;;;;;;4719175;30;20562;-84
2022/01/21 08:54:29;;;;;;;9.43;3.80;;;;;;;;;;4718643;30;20609;-85
2022/01/21 08:57:34;;;;;;;11.57;5.47;;;;;;;;;;4728799;30;20554;-85
2022/01/21 09:00:39;;;;;;;14.07;6.57;;;;;;;;;;4729469;30;20569;-85
2022/01/21 09:03:43;;;;;;;13.80;5.97;;;;;;;;;;4729199;30;20653;-85
2022/01/21 09:06:48;;;;;;;17.17;7.37;;;;;;;;;;4739239;30;21181;-85
2022/01/21 09:09:51;;;;;;;20.30;11.47;;;;;;;;;;4718920;30;20609;-85
2022/01/21 09:12:56;;;;;;;12.77;7.83;;;;;;;;;;4729349;30;20636;-84
2022/01/21 09:16:01;;;;;;;13.60;7.13;;;;;;;;;;4739985;30;21097;-85
2022/01/21 09:19:05;;;;;;;10.80;4.67;;;;;;;;;;4728852;30;20610;-84
2022/01/21 09:22:10;;;;;;;13.07;6.10;;;;;;;;;;4728866;30;20677;-84
2022/01/21 09:25:14;;;;;;;9.23;5.63;;;;;;;;;;4719477;30;20554;-85
2022/01/21 09:28:18;;;;;;;22.13;9.60;;;;;;;;;;4719153;30;20605;-84
2022/01/21 09:31:23;;;;;;;10.33;5.77;;;;;;;;;;4718314;30;20653;-85
2022/01/21 09:34:29;;;;;;;10.00;3.90;;;;;;;;;;4729096;30;20551;-84
2022/01/21 09:37:33;;;;;;;12.07;4.30;;;;;;;;;;4718758;30;20567;-84
2022/01/21 09:40:46;;;;;;;9.17;3.80;;;;;;;;;;4718700;30;20558;-85
2022/01/21 09:43:53;;;;;;;12.10;4.53;;;;;;;;;;4738452;30;20610;-85
2022/01/21 09:46:59;;;;;;;9.57;4.30;;;;;;;;;;4728431;30;20562;-85
2022/01/21 09:50:04;;;;;;;13.33;6.00;;;;;;;;;;4728298;30;20610;-85
2022/01/21 09:53:09;;;;;;;21.97;13.50;;;;;;;;;;4737969;30;20638;-85
2022/01/21 09:56:14;;;;;;;17.73;8.77;;;;;;;;;;4728208;30;20557;-85
2022/01/21 09:59:20;;;;;;;14.40;7.03;;;;;;;;;;4717846;30;20558;-84
2022/01/21 10:02:29;;;;;;;17.10;11.67;;;;;;;;;;4747722;30;21051;-86
2022/01/21 10:05:33;;;;;;;20.40;9.63;;;;;;;;;;4727678;30;20584;-84
2022/01/21 10:08:41;;;;;;;16.53;7.93;;;;;;;;;;4727562;30;20567;-85
2022/01/21 10:11:48;;;;;;;18.73;7.50;;;;;;;;;;4717448;30;20650;-84
2022/01/21 10:14:52;;;;;;;14.73;5.70;;;;;;;;;;4737880;30;20551;-86
2022/01/21 10:18:27;;;;;;;9.60;5.77;;;;;;;;;;4727816;30;20570;-85
2022/01/21 10:21:34;;;;;;;11.73;5.90;;;;;;;;;;4727758;30;20638;-84
2022/01/21 10:24:58;;;;;;;13.63;4.10;;;;;;;;;;4737633;30;20543;-85
2022/01/21 10:28:13;;;;;;;16.07;6.77;;;;;;;;;;4737782;30;20598;-84
2022/01/21 10:31:18;;;;;;;14.40;6.17;;;;;;;;;;4717538;30;20602;-85
2022/01/21 10:34:43;;;;;;;12.80;4.20;;;;;;;;;;4737648;30;20555;-85
2022/01/21 10:37:48;;;;;;;15.13;6.10;;;;;;;;;;4727686;30;20566;-85
2022/01/21 10:41:02;;;;;;;13.40;4.30;;;;;;;;;;4718453;30;20562;-85
2022/01/21 10:44:14;;;;;;;5.90;2.93;;;;;;;;;;4727832;30;20610;-85
2022/01/21 10:47:25;;;;;;;9.93;4.07;;;;;;;;;;4718256;30;20566;-85
2022/01/21 10:50:29;;;;;;;9.70;4.00;;;;;;;;;;4728528;30;20558;-85
2022/01/21 10:53:33;;;;;;;12.03;3.53;;;;;;;;;;4737891;30;20920;-85
2022/01/21 10:56:38;;;;;;;22.33;11.97;;;;;;;;;;4728282;30;20896;-85
2022/01/21 10:59:46;;;;;;;15.53;7.27;;;;;;;;;;4728104;30;20633;-85
2022/01/21 11:02:54;;;;;;;9.13;5.70;;;;;;;;;;4767563;24;20689;-86
2022/01/21 11:06:13;;;;;;;12.57;5.27;;;;;;;;;;4725913;30;20884;-86
2022/01/21 11:09:24;;;;;;;8.53;4.13;;;;;;;;;;4725516;30;20574;-86
2022/01/21 11:12:33;;;;;;;10.13;3.30;;;;;;;;;;4715910;30;21197;-86
2022/01/21 11:15:43;;;;;;;10.50;3.73;;;;;;;;;;4725349;30;20900;-86
2022/01/21 11:18:54;;;;;;;9.60;3.73;;;;;;;;;;4705586;30;20558;-87
2022/01/21 11:22:01;;;;;;;7.63;3.60;;;;;;;;;;4715352;30;20629;-85
2022/01/21 11:25:06;;;;;;;9.80;3.70;;;;;;;;;;4705897;30;20610;-86
2022/01/21 11:28:15;;;;;;;5.30;2.37;;;;;;;;;;4725206;30;20955;-86
2022/01/21 11:31:23;;;;;;;6.93;2.83;;;;;;;;;;4705131;30;21189;-86
2022/01/21 11:34:28;;;;;;;5.90;3.30;;;;;;;;;;4725482;30;20555;-85
2022/01/21 11:37:32;;;;;;;17.50;2.60;;;;;;;;;;4715501;30;20939;-85
2022/01/21 11:40:38;;;;;;;6.30;2.70;;;;;;;;;;4725422;30;20625;-86
2022/01/21 11:43:50;;;;;;;8.20;2.60;;;;;;;;;;4746225;30;20669;-85
2022/01/21 11:50:32;;;;;;;8.77;2.93;;;;;;;;;;4715589;30;20618;-86
2022/01/21 11:53:51;;;;;;;7.10;3.03;;;;;;;;;;4725498;30;20986;-87
2022/01/21 11:56:59;;;;;;;8.40;2.50;;;;;;;;;;4736405;30;20555;-85
2022/01/21 12:00:07;;;;;;;6.73;1.77;;;;;;;;;;4716707;30;20892;-87
2022/01/21 12:03:11;;;;;;;4.90;1.67;;;;;;;;;;4726390;30;20673;-86
2022/01/21 12:06:34;;;;;;;6.00;1.83;;;;;;;;;;4727784;30;20562;-88
2022/01/21 12:09:59;;;;;;;6.63;2.07;;;;;;;;;;4706881;30;20558;-88
2022/01/21 12:13:07;;;;;;;11.97;2.53;;;;;;;;;;4717570;30;20633;-87
2022/01/21 12:16:23;;;;;;;9.03;2.37;;;;;;;;;;4716402;30;20570;-86
2022/01/21 12:19:34;;;;;;;10.67;2.20;;;;;;;;;;4717398;30;20559;-87
2022/01/21 12:22:38;;;;;;;9.80;2.30;;;;;;;;;;4711697;30;20645;-87
2022/01/21 12:26:10;;;;;;;8.63;2.10;;;;;;;;;;4728055;30;20547;-87
2022/01/21 12:29:15;;;;;;;11.60;3.97;;;;;;;;;;4708928;30;21087;-86
2022/01/21 12:32:37;;;;;;;34.73;16.43;;;;;;;;;;4705992;30;20637;-86
2022/01/21 12:36:11;;;;;;;8.17;4.27;;;;;;;;;;4727943;30;20621;-86
2022/01/21 12:39:47;;;;;;;6.70;2.83;;;;;;;;;;4719431;30;20574;-86
2022/01/21 12:42:52;;;;;;;22.90;7.87;;;;;;;;;;4716920;30;20630;-86
2022/01/21 12:46:02;;;;;;;63.13;16.10;;;;;;;;;;4719977;30;20570;-86
2022/01/21 12:49:36;;;;;;;15.97;4.30;;;;;;;;;;4720141;30;20923;-86
2022/01/21 12:56:05;;;;;;;26.07;6.73;;;;;;;;;;4720854;30;20554;-86
2022/01/21 12:59:18;;;;;;;13.97;4.40;;;;;;;;;;4715179;30;20879;-86
2022/01/21 13:02:25;;;;;;;299.77;81.57;;;;;;;;;;4730457;30;20660;-86
2022/01/21 13:05:38;;;;;;;23.73;8.37;;;;;;;;;;4739748;30;20557;-86
2022/01/21 13:08:52;;;;;;;15.27;4.47;;;;;;;;;;4710012;30;20578;-85
2022/01/21 13:12:06;;;;;;;8.00;2.13;;;;;;;;;;4709595;30;20642;-85
2022/01/21 13:15:10;;;;;;;8.80;2.70;;;;;;;;;;4739066;30;20935;-86
2022/01/21 13:18:36;;;;;;;10.97;2.23;;;;;;;;;;4718767;30;20959;-87
2022/01/21 13:21:46;;;;;;;23.33;7.90;;;;;;;;;;4712684;30;20638;-87
2022/01/21 13:25:09;;;;;;;4.97;1.87;;;;;;;;;;4740886;30;20610;-87
2022/01/21 13:28:14;;;;;;;25.20;8.90;;;;;;;;;;4718901;30;20559;-85
2022/01/21 13:31:18;;;;;;;10.30;3.47;;;;;;;;;;4708217;30;20570;-86
2022/01/21 13:34:28;;;;;;;12.83;5.20;;;;;;;;;;4729693;30;20550;-85
2022/01/21 13:37:33;;;;;;;5.87;2.40;;;;;;;;;;4711311;30;20912;-87
2022/01/21 13:40:41;;;;;;;7.93;1.93;;;;;;;;;;4728751;30;20617;-86
2022/01/21 13:43:48;;;;;;;7.47;1.90;;;;;;;;;;4737629;30;20661;-87
2022/01/21 13:46:53;;;;;;;11.10;2.23;;;;;;;;;;4707585;30;20622;-85
2022/01/21 13:50:03;;;;;;;7.97;1.77;;;;;;;;;;4722025;30;20605;-85
2022/01/21 13:53:07;;;;;;;4.97;2.07;;;;;;;;;;4711539;30;20650;-85
2022/01/21 13:56:15;;;;;;;3.23;2.20;;;;;;;;;;4727375;30;20558;-83
2022/01/21 13:59:19;;;;;;;6.27;1.90;;;;;;;;;;4729199;30;20897;-83
2022/01/21 14:02:23;;;;;;;7.23;2.07;;;;;;;;;;4694653;30;1053587;-83
2022/01/21 14:05:44;;;;;;;4.27;1.40;;;;;;;;;;4729718;30;20227;-79
2022/01/21 14:08:50;;;;;;;5.40;1.87;;;;;;;;;;4711854;30;20566;-83
2022/01/21 14:11:56;;;;;;;6.37;1.80;;;;;;;;;;4720650;30;20641;-86
2022/01/21 14:15:01;;;;;;;6.17;1.80;;;;;;;;;;4729514;30;21082;-85
2022/01/21 14:18:05;;;;;;;5.33;2.10;;;;;;;;;;4709639;30;20563;-85
2022/01/21 14:21:09;;;;;;;4.30;2.10;;;;;;;;;;4730508;30;20640;-85
2022/01/21 14:24:22;;;;;;;5.63;2.10;;;;;;;;;;4708527;30;21174;-86
2022/01/21 14:27:29;;;;;;;8.83;2.20;;;;;;;;;;4719898;30;20959;-86
2022/01/21 14:30:40;;;;;;;11.43;5.27;;;;;;;;;;4713241;30;21086;-86
2022/01/21 14:33:43;;;;;;;43.43;26.10;;;;;;;;;;4726536;30;20630;-87
2022/01/21 14:37:07;;;;;;;15.20;9.67;;;;;;;;;;4728460;30;20559;-86
2022/01/21 14:40:15;;;;;;;8.63;2.10;;;;;;;;;;4728139;30;20547;-86
2022/01/21 14:43:22;;;;;;;5.70;3.10;;;;;;;;;;4738829;30;20638;-84
2022/01/21 14:46:27;;;;;;;9.40;2.70;;;;;;;;;;4742502;30;20547;-84
2022/01/21 14:49:31;;;;;;;14.37;8.30;;;;;;;;;;4729628;30;20900;-86
2022/01/21 14:52:56;;;;;;;14.80;5.30;;;;;;;;;;4729885;30;20633;-86
2022/01/21 14:56:00;;;;;;;9.23;2.70;;;;;;;;;;4721777;30;20555;-84
2022/01/21 14:59:07;;;;;;;9.03;3.07;;;;;;;;;;4721281;30;20609;-86
2022/01/21 15:02:11;;;;;;;8.60;3.30;;;;;;;;;;4727289;30;20649;-85
2022/01/21 15:05:15;;;;;;;9.97;3.50;;;;;;;;;;4707439;30;20602;-85
2022/01/21 15:08:39;;;;;;;9.80;3.60;;;;;;;;;;4740928;30;20566;-86
2022/01/21 15:11:58;;;;;;;8.03;3.30;;;;;;;;;;4728787;30;20642;-86
2022/01/21 15:15:03;;;;;;;9.63;3.47;;;;;;;;;;4711824;30;20551;-85
2022/01/21 15:18:07;;;;;;;8.37;3.47;;;;;;;;;;4726755;30;20570;-87
2022/01/21 15:21:23;;;;;;;8.23;3.53;;;;;;;;;;4726403;30;20885;-86
2022/01/21 15:24:28;;;;;;;11.20;4.90;;;;;;;;;;4729400;30;20662;-88
2022/01/21 15:27:32;;;;;;;8.23;5.53;;;;;;;;;;4716184;30;20562;-86
2022/01/21 15:30:37;;;;;;;11.17;4.90;;;;;;;;;;4706786;30;20570;-86
2022/01/21 15:33:41;;;;;;;11.53;4.70;;;;;;;;;;4705877;30;20629;-87
2022/01/21 15:36:46;;;;;;;14.40;4.23;;;;;;;;;;4727789;30;20547;-86
2022/01/21 15:39:50;;;;;;;8.03;3.83;;;;;;;;;;4706841;30;20550;-86
2022/01/21 15:42:54;;;;;;;13.23;5.07;;;;;;;;;;4739856;30;20634;-86
2022/01/21 15:45:59;;;;;;;10.57;5.87;;;;;;;;;;4709170;30;20613;-88
2022/01/21 15:49:04;;;;;;;9.33;6.50;;;;;;;;;;4710090;30;20577;-87
2022/01/21 15:52:09;;;;;;;14.87;8.80;;;;;;;;;;4738533;30;20646;-86
2022/01/21 15:55:13;;;;;;;14.17;8.87;;;;;;;;;;4706769;30;20557;-87
2022/01/21 15:58:17;;;;;;;11.73;4.70;;;;;;;;;;4727303;30;20546;-87
2022/01/21 16:01:21;;;;;;;9.40;5.03;;;;;;;;;;4707309;30;21122;-86
2022/01/21 16:04:25;;;;;;;14.03;6.57;;;;;;;;;;4708207;30;20606;-87
2022/01/21 16:07:30;;;;;;;14.77;6.93;;;;;;;;;;4717648;30;20915;-87
2022/01/21 16:10:33;;;;;;;20.80;10.23;;;;;;;;;;4729620;30;20573;-88
2022/01/21 16:13:38;;;;;;;13.37;6.43;;;;;;;;;;4728350;30;20990;-86
2022/01/21 16:16:42;;;;;;;23.23;11.47;;;;;;;;;;4707222;30;20565;-88
2022/01/21 16:19:46;;;;;;;15.20;6.23;;;;;;;;;;4731078;30;20927;-87
2022/01/21 16:22:50;;;;;;;14.17;9.00;;;;;;;;;;4721858;30;20652;-87
2022/01/21 16:25:55;;;;;;;17.10;6.43;;;;;;;;;;4729121;30;20696;-86
2022/01/21 16:29:00;;;;;;;10.60;5.50;;;;;;;;;;4709511;30;20565;-87
2022/01/21 16:32:04;;;;;;;14.37;6.47;;;;;;;;;;4708854;30;20636;-86
2022/01/21 16:35:10;;;;;;;10.73;6.57;;;;;;;;;;4710520;30;20557;-86
2022/01/21 16:38:14;;;;;;;13.00;6.67;;;;;;;;;;4719858;30;20930;-86
2022/01/21 16:41:19;;;;;;;14.87;6.77;;;;;;;;;;4729115;30;21101;-87
2022/01/21 16:44:23;;;;;;;27.60;16.00;;;;;;;;;;4719389;30;20621;-87
2022/01/21 16:47:28;;;;;;;17.23;7.47;;;;;;;;;;4730119;30;20578;-86
2022/01/21 16:50:32;;;;;;;18.47;10.30;;;;;;;;;;4729427;30;20624;-86
2022/01/21 16:53:36;;;;;;;34.47;16.57;;;;;;;;;;4731473;30;20648;-87
2022/01/21 16:56:44;;;;;;;29.40;13.73;;;;;;;;;;4740770;30;20566;-87
2022/01/21 16:59:48;;;;;;;30.03;14.73;;;;;;;;;;4729027;30;20620;-86
2022/01/21 17:02:53;;;;;;;9.63;5.43;;;;;;;;;;4720056;30;20660;-87
2022/01/21 17:05:59;;;;;;;15.37;5.07;;;;;;;;;;4728769;30;20613;-86
2022/01/21 17:09:04;;;;;;;10.17;5.07;;;;;;;;;;4729368;30;20581;-86
2022/01/21 17:12:09;;;;;;;8.60;4.53;;;;;;;;;;4728155;30;21207;-87
2022/01/21 17:15:12;;;;;;;12.03;5.37;;;;;;;;;;4708796;30;20555;-88
2022/01/21 17:18:18;;;;;;;9.53;5.30;;;;;;;;;;4738599;30;20567;-87
2022/01/21 17:21:22;;;;;;;13.47;6.30;;;;;;;;;;4727925;30;20618;-87
2022/01/21 17:24:26;;;;;;;28.17;14.70;;;;;;;;;;4737265;30;20570;-86
2022/01/21 17:27:31;;;;;;;13.00;6.40;;;;;;;;;;4728073;30;20565;-86
2022/01/21 17:30:35;;;;;;;20.77;10.33;;;;;;;;;;4707152;30;20563;-86
2022/01/21 17:33:39;;;;;;;21.47;11.80;;;;;;;;;;4737220;30;20632;-86
2022/01/21 17:36:43;;;;;;;12.50;8.07;;;;;;;;;;4707419;30;20558;-86
2022/01/21 17:39:47;;;;;;;11.93;5.53;;;;;;;;;;4726855;30;20554;-87
2022/01/21 17:42:52;;;;;;;11.30;6.33;;;;;;;;;;4727204;30;20640;-85
2022/01/21 17:45:57;;;;;;;10.80;5.47;;;;;;;;;;4717071;30;20631;-85
2022/01/21 17:49:01;;;;;;;15.23;8.17;;;;;;;;;;4736845;30;20588;-87
2022/01/21 17:52:06;;;;;;;12.80;4.87;;;;;;;;;;4717373;30;20637;-85
2022/01/21 17:55:10;;;;;;;15.17;6.50;;;;;;;;;;4726567;30;20609;-86
2022/01/21 17:58:15;;;;;;;11.37;6.10;;;;;;;;;;4736917;30;20609;-87
2022/01/21 18:01:19;;;;;;;10.60;5.87;;;;;;;;;;4737721;30;20558;-86
2022/01/21 18:04:24;;;;;;;19.90;8.13;;;;;;;;;;4726988;30;20562;-87
2022/01/21 18:07:29;;;;;;;14.73;6.77;;;;;;;;;;4737091;30;20551;-86
2022/01/21 18:13:57;;;;;;;12.93;6.60;;;;;;;;;;4716463;30;20558;-86
2022/01/21 18:17:18;;;;;;;11.97;6.80;;;;;;;;;;4726187;30;20562;-87
2022/01/21 18:20:26;;;;;;;11.10;5.47;;;;;;;;;;4717145;30;20554;-87
2022/01/21 18:23:30;;;;;;;11.27;7.20;;;;;;;;;;4726020;30;20637;-87
2022/01/21 18:26:34;;;;;;;12.10;5.63;;;;;;;;;;4717141;30;20609;-85
2022/01/21 18:29:39;;;;;;;9.83;5.40;;;;;;;;;;4718237;30;20558;-86
2022/01/21 18:32:43;;;;;;;12.93;5.27;;;;;;;;;;4707168;30;20633;-87
2022/01/21 18:35:47;;;;;;;9.57;5.47;;;;;;;;;;4737889;30;20554;-86
2022/01/21 18:38:52;;;;;;;11.03;5.10;;;;;;;;;;4707837;30;20920;-86
2022/01/21 18:41:56;;;;;;;14.00;5.13;;;;;;;;;;4706237;30;20646;-87
2022/01/21 18:45:09;;;;;;;12.57;6.17;;;;;;;;;;4738283;30;20610;-87
2022/01/21 18:48:13;;;;;;;14.43;5.83;;;;;;;;;;4730365;30;20555;-86
2022/01/21 18:51:17;;;;;;;9.37;5.30;;;;;;;;;;4708075;30;20554;-85
2022/01/21 18:54:21;;;;;;;10.20;4.67;;;;;;;;;;4725841;30;20900;-87
2022/01/21 18:57:25;;;;;;;12.43;6.73;;;;;;;;;;4706961;30;20550;-86
2022/01/21 19:00:30;;;;;;;10.87;5.37;;;;;;;;;;4705808;30;20617;-87
2022/01/21 19:03:34;;;;;;;10.07;4.93;;;;;;;;;;4706291;30;20649;-85
2022/01/21 19:06:38;;;;;;;10.23;5.27;;;;;;;;;;4746015;30;20618;-87
2022/01/21 19:09:42;;;;;;;12.50;5.10;;;;;;;;;;4705789;30;20558;-86
2022/01/21 19:12:47;;;;;;;9.63;5.23;;;;;;;;;;4725663;30;21201;-86
2022/01/21 19:15:52;;;;;;;8.70;4.90;;;;;;;;;;4725933;30;20559;-87
2022/01/21 19:18:57;;;;;;;10.60;5.37;;;;;;;;;;4726834;30;20558;-87
2022/01/21 19:22:06;;;;;;;11.23;5.93;;;;;;;;;;4726102;30;20629;-85